createdAt,value
2017-12-05T05:00:27.835Z,6.19
2017-12-05T05:00:53.300Z,6.19
2017-12-05T05:01:18.792Z,6.2
2017-12-05T05:01:44.290Z,6.28
2017-12-05T05:02:09.760Z,6.27
2017-12-05T05:02:35.310Z,6.22
2017-12-05T05:03:00.802Z,6.3
2017-12-05T05:03:26.297Z,6.2
2017-12-05T05:03:51.768Z,6.22
2017-12-05T05:04:17.287Z,6.28
2017-12-05T05:04:42.765Z,6.3
2017-12-05T05:05:08.226Z,6.28
2017-12-05T05:05:33.716Z,6.24
2017-12-05T05:05:59.222Z,6.26
2017-12-05T05:06:24.719Z,6.26
2017-12-05T05:07:18.161Z,6.33
2017-12-05T05:07:43.666Z,6.27
2017-12-05T05:08:09.166Z,6.3
2017-12-05T05:08:34.707Z,6.31
2017-12-05T05:09:00.195Z,6.28
2017-12-05T05:09:25.713Z,6.28
2017-12-05T05:09:51.204Z,6.3
2017-12-05T05:10:16.691Z,6.26
2017-12-05T05:10:42.158Z,6.24
2017-12-05T05:11:07.649Z,6.27
2017-12-05T05:11:33.173Z,6.26
2017-12-05T05:11:58.690Z,6.24
2017-12-05T05:12:24.184Z,6.35
2017-12-05T05:12:49.697Z,6.27
2017-12-05T05:13:15.187Z,6.2
2017-12-05T05:13:40.694Z,6.3
2017-12-05T05:14:06.193Z,6.3
2017-12-05T05:14:31.650Z,6.31
2017-12-05T05:14:57.138Z,6.27
2017-12-05T05:15:22.612Z,6.35
2017-12-05T05:15:48.109Z,6.27
2017-12-05T05:16:13.616Z,6.24
2017-12-05T05:16:39.110Z,6.24
2017-12-05T05:17:04.574Z,6.3
2017-12-05T05:17:30.092Z,6.26
2017-12-05T05:17:55.568Z,6.28
2017-12-05T05:18:21.063Z,6.28
2017-12-05T05:18:46.574Z,6.27
2017-12-05T05:19:12.066Z,6.28
2017-12-05T05:19:37.544Z,6.28
2017-12-05T05:20:03.038Z,6.28
2017-12-05T05:20:28.529Z,6.27
2017-12-05T05:20:54.020Z,6.3
2017-12-05T05:21:19.520Z,6.26
2017-12-05T05:21:44.992Z,6.3
2017-12-05T05:22:10.533Z,6.28
2017-12-05T05:22:36.103Z,6.26
2017-12-05T05:23:01.597Z,6.26
2017-12-05T05:23:27.089Z,6.28
2017-12-05T05:23:52.704Z,6.31
2017-12-05T05:24:18.169Z,6.27
2017-12-05T05:24:43.615Z,6.26
2017-12-05T05:25:09.089Z,6.38
2017-12-05T05:25:34.791Z,6.3
2017-12-05T05:26:00.243Z,6.31
2017-12-05T05:26:25.838Z,6.35
2017-12-05T05:26:51.272Z,6.27
2017-12-05T05:27:16.786Z,6.3
2017-12-05T05:27:42.323Z,6.3
2017-12-05T05:28:07.879Z,6.3
2017-12-05T05:28:33.275Z,6.33
2017-12-05T05:28:58.778Z,6.28
2017-12-05T05:29:24.215Z,6.36
2017-12-05T05:29:49.775Z,6.27
2017-12-05T05:30:15.210Z,6.31
2017-12-05T05:30:40.698Z,6.3
2017-12-05T05:31:06.181Z,6.33
2017-12-05T05:31:31.967Z,6.3
2017-12-05T05:31:57.537Z,6.31
2017-12-05T05:32:23.259Z,6.28
2017-12-05T05:32:48.765Z,6.28
2017-12-05T05:33:14.239Z,6.27
2017-12-05T05:33:39.833Z,6.31
2017-12-05T05:34:05.314Z,6.27
2017-12-05T05:34:30.799Z,6.35
2017-12-05T05:34:56.299Z,6.28
2017-12-05T05:35:21.772Z,6.36
2017-12-05T05:35:47.262Z,6.26
2017-12-05T05:36:12.755Z,6.28
2017-12-05T05:36:38.272Z,6.27
2017-12-05T05:37:03.726Z,6.26
2017-12-05T05:37:29.219Z,6.33
2017-12-05T05:37:54.710Z,6.24
2017-12-05T05:38:20.191Z,6.24
2017-12-05T05:38:45.798Z,6.24
2017-12-05T05:39:11.344Z,6.24
2017-12-05T05:39:36.821Z,6.31
2017-12-05T05:40:02.343Z,6.24
2017-12-05T05:40:27.878Z,6.27
2017-12-05T05:40:53.397Z,6.28
2017-12-05T05:41:18.857Z,6.26
2017-12-05T05:41:44.317Z,6.3
2017-12-05T05:42:09.793Z,6.28
2017-12-05T05:42:35.284Z,6.27
2017-12-05T05:43:00.792Z,6.28
2017-12-05T05:43:26.279Z,6.27
2017-12-05T05:43:51.814Z,6.26
2017-12-05T05:44:17.349Z,6.28
2017-12-05T05:45:21.974Z,6.27
2017-12-05T05:45:47.416Z,6.33
2017-12-05T05:46:12.928Z,6.27
2017-12-05T05:46:38.404Z,6.28
2017-12-05T05:47:03.964Z,6.27
2017-12-05T05:47:29.518Z,6.26
2017-12-05T05:47:55.027Z,6.27
2017-12-05T05:48:43.342Z,6.27
2017-12-05T05:49:08.896Z,6.27
2017-12-05T05:49:34.780Z,6.3
2017-12-05T05:50:00.264Z,6.3
2017-12-05T05:50:25.736Z,6.31
2017-12-05T05:50:51.312Z,6.27
2017-12-05T05:51:16.824Z,6.24
2017-12-05T05:51:42.260Z,6.31
2017-12-05T05:52:07.743Z,6.31
2017-12-05T05:52:33.214Z,6.28
2017-12-05T05:52:58.743Z,6.33
2017-12-05T05:53:24.199Z,6.31
2017-12-05T05:53:49.657Z,6.38
2017-12-05T05:54:15.111Z,6.27
2017-12-05T05:54:40.617Z,6.27
2017-12-05T05:55:06.224Z,6.35
2017-12-05T05:55:31.672Z,6.28
2017-12-05T05:55:57.136Z,6.39
2017-12-05T05:56:22.607Z,6.28
2017-12-05T05:56:48.161Z,6.36
2017-12-05T05:57:13.581Z,6.3
2017-12-05T05:57:39.078Z,6.26
2017-12-05T05:58:04.601Z,6.3
2017-12-05T05:58:30.111Z,6.3
2017-12-05T05:58:55.587Z,6.26
2017-12-05T05:59:21.099Z,6.27
2017-12-05T05:59:46.583Z,6.33
2017-12-05T06:00:12.087Z,6.27
2017-12-05T06:00:37.573Z,6.27
2017-12-05T06:01:03.018Z,6.3
2017-12-05T06:01:28.474Z,6.35
2017-12-05T06:01:53.956Z,6.28
2017-12-05T06:02:19.440Z,6.36
2017-12-05T06:02:44.974Z,6.36
2017-12-05T06:03:10.418Z,6.27
2017-12-05T06:03:35.983Z,6.27
2017-12-05T06:04:01.492Z,6.3
2017-12-05T06:04:26.928Z,6.31
2017-12-05T06:04:52.452Z,6.36
2017-12-05T06:05:18.007Z,6.3
2017-12-05T06:05:43.515Z,6.28
2017-12-05T06:06:09.010Z,6.35
2017-12-05T06:06:34.476Z,6.38
2017-12-05T06:06:59.957Z,6.33
2017-12-05T06:07:25.458Z,6.33
2017-12-05T06:07:50.920Z,6.35
2017-12-05T06:08:16.419Z,6.33
2017-12-05T06:08:41.922Z,6.33
2017-12-05T06:09:07.427Z,6.26
2017-12-05T06:09:32.960Z,6.31
2017-12-05T06:09:58.468Z,6.26
2017-12-05T06:10:24.003Z,6.3
2017-12-05T06:10:49.502Z,6.36
2017-12-05T06:11:14.946Z,6.26
2017-12-05T06:11:40.419Z,6.33
2017-12-05T06:12:05.937Z,6.27
2017-12-05T06:12:31.410Z,6.28
2017-12-05T06:12:56.933Z,6.3
2017-12-05T06:13:22.413Z,6.28
2017-12-05T06:13:47.997Z,6.28
2017-12-05T06:14:13.447Z,6.33
2017-12-05T06:14:38.973Z,6.3
2017-12-05T06:15:04.392Z,6.31
2017-12-05T06:15:29.999Z,6.31
2017-12-05T06:15:55.442Z,6.27
2017-12-05T06:16:21.041Z,6.28
2017-12-05T06:16:46.484Z,6.26
2017-12-05T06:17:11.963Z,6.3
2017-12-05T06:17:37.451Z,6.31
2017-12-05T06:18:02.920Z,6.22
2017-12-05T06:18:28.402Z,6.24
2017-12-05T06:18:53.939Z,6.24
2017-12-05T06:19:19.450Z,6.3
2017-12-05T06:19:44.948Z,6.35
2017-12-05T06:20:10.450Z,6.33
2017-12-05T06:20:35.941Z,6.3
2017-12-05T06:21:01.491Z,6.31
2017-12-05T06:21:26.958Z,6.24
2017-12-05T06:21:52.443Z,6.24
2017-12-05T06:22:17.859Z,6.3
2017-12-05T06:22:43.363Z,6.24
2017-12-05T06:23:08.873Z,6.31
2017-12-05T06:23:34.371Z,6.28
2017-12-05T06:23:59.876Z,6.3
2017-12-05T06:24:25.378Z,6.3
2017-12-05T06:24:50.833Z,6.26
2017-12-05T06:25:16.349Z,6.3
2017-12-05T06:25:41.813Z,6.3
2017-12-05T06:26:07.349Z,6.27
2017-12-05T06:26:32.822Z,6.22
2017-12-05T06:26:58.298Z,6.3
2017-12-05T06:27:23.763Z,6.3
2017-12-05T06:27:49.255Z,6.24
2017-12-05T06:28:14.752Z,6.27
2017-12-05T06:28:40.223Z,6.28
2017-12-05T06:29:05.691Z,6.24
2017-12-05T06:29:31.207Z,6.26
2017-12-05T06:29:56.685Z,6.3
2017-12-05T06:30:22.172Z,6.3
2017-12-05T06:30:47.651Z,6.28
2017-12-05T06:31:13.106Z,6.3
2017-12-05T06:31:38.614Z,6.28
2017-12-05T06:32:04.121Z,6.28
2017-12-05T06:33:07.754Z,6.28
2017-12-05T06:33:33.267Z,6.33
2017-12-05T06:33:58.747Z,6.3
2017-12-05T06:34:24.226Z,6.3
2017-12-05T06:34:49.714Z,6.24
2017-12-05T06:35:15.210Z,6.27
2017-12-05T06:35:40.693Z,6.27
2017-12-05T06:36:06.217Z,6.24
2017-12-05T06:36:31.678Z,6.3
2017-12-05T06:36:57.195Z,6.36
2017-12-05T06:37:22.675Z,6.28
2017-12-05T06:37:48.294Z,6.26
2017-12-05T06:38:13.765Z,6.41
2017-12-05T06:38:39.292Z,6.27
2017-12-05T06:39:04.763Z,6.33
2017-12-05T06:39:30.350Z,6.35
2017-12-05T06:39:55.899Z,6.28
2017-12-05T06:40:21.359Z,6.33
2017-12-05T06:40:46.844Z,6.24
2017-12-05T06:41:12.358Z,6.3
2017-12-05T06:41:37.806Z,6.3
2017-12-05T06:42:03.294Z,6.28
2017-12-05T06:42:28.839Z,6.27
2017-12-05T06:42:54.287Z,6.33
2017-12-05T06:43:19.770Z,6.24
2017-12-05T06:43:45.224Z,6.28
2017-12-05T06:44:10.711Z,6.3
2017-12-05T06:44:36.212Z,6.39
2017-12-05T06:45:01.658Z,6.33
2017-12-05T06:45:27.215Z,6.3
2017-12-05T06:45:52.706Z,6.3
2017-12-05T06:46:18.187Z,6.27
2017-12-05T06:46:43.663Z,6.3
2017-12-05T06:47:09.196Z,6.31
2017-12-05T06:47:34.705Z,6.27
2017-12-05T06:48:00.216Z,6.27
2017-12-05T06:48:25.707Z,6.33
2017-12-05T06:48:51.184Z,6.27
2017-12-05T06:49:16.730Z,6.26
2017-12-05T06:49:42.279Z,6.27
2017-12-05T06:50:07.762Z,6.33
2017-12-05T06:50:33.191Z,6.31
2017-12-05T06:50:58.750Z,6.28
2017-12-05T06:51:24.336Z,6.28
2017-12-05T06:51:49.802Z,6.31
2017-12-05T06:52:15.395Z,6.31
2017-12-05T06:52:40.937Z,6.3
2017-12-05T06:53:06.372Z,6.27
2017-12-05T06:53:31.904Z,6.27
2017-12-05T06:53:57.446Z,6.27
2017-12-05T06:54:22.906Z,6.38
2017-12-05T06:54:48.488Z,6.28
2017-12-05T06:55:13.993Z,6.3
2017-12-05T06:55:39.606Z,6.27
2017-12-05T06:56:05.087Z,6.28
2017-12-05T06:56:30.583Z,6.28
2017-12-05T06:56:56.071Z,6.28
2017-12-05T06:57:21.563Z,6.24
2017-12-05T06:57:47.087Z,6.27
2017-12-05T06:58:12.544Z,6.31
2017-12-05T06:58:38.218Z,6.3
2017-12-05T06:59:03.741Z,6.36
2017-12-05T06:59:29.272Z,6.27
2017-12-05T06:59:54.735Z,6.3
2017-12-05T07:00:20.351Z,6.26
2017-12-05T07:00:45.853Z,6.3
2017-12-05T07:01:11.376Z,6.24
2017-12-05T07:01:36.872Z,6.27
2017-12-05T07:02:02.398Z,6.26
2017-12-05T07:02:27.931Z,6.27
2017-12-05T07:02:53.344Z,6.3
2017-12-05T07:03:18.843Z,6.22
2017-12-05T07:03:44.326Z,6.27
2017-12-05T07:04:09.817Z,6.26
2017-12-05T07:04:35.298Z,6.24
2017-12-05T07:05:00.759Z,6.33
2017-12-05T07:05:26.320Z,6.3
2017-12-05T07:05:51.950Z,6.33
2017-12-05T07:06:17.397Z,6.26
2017-12-05T07:06:42.839Z,6.26
2017-12-05T07:07:08.338Z,6.28
2017-12-05T07:07:33.859Z,6.33
2017-12-05T07:07:59.414Z,6.3
2017-12-05T07:08:24.839Z,6.28
2017-12-05T07:08:50.307Z,6.33
2017-12-05T07:09:15.768Z,6.27
2017-12-05T07:09:41.208Z,6.33
2017-12-05T07:10:06.750Z,6.27
2017-12-05T07:10:32.194Z,6.28
2017-12-05T07:10:57.625Z,6.3
2017-12-05T07:11:23.206Z,6.24
2017-12-05T07:11:48.750Z,6.28
2017-12-05T07:12:14.232Z,6.27
2017-12-05T07:12:39.620Z,6.28
2017-12-05T07:13:05.109Z,6.26
2017-12-05T07:13:30.652Z,6.28
2017-12-05T07:13:56.137Z,6.31
2017-12-05T07:14:21.693Z,6.27
2017-12-05T07:14:47.284Z,6.24
2017-12-05T07:15:12.781Z,6.28
2017-12-05T07:15:38.241Z,6.28
2017-12-05T07:16:03.722Z,6.27
2017-12-05T07:16:29.162Z,6.26
2017-12-05T07:16:54.779Z,6.27
2017-12-05T07:17:20.184Z,6.27
2017-12-05T07:17:45.716Z,6.3
2017-12-05T07:18:11.154Z,6.27
2017-12-05T07:18:36.801Z,6.33
2017-12-05T07:19:02.208Z,6.3
2017-12-05T07:19:27.706Z,6.27
2017-12-05T07:19:53.286Z,6.26
2017-12-05T07:20:18.648Z,6.26
2017-12-05T07:20:44.230Z,6.31
2017-12-05T07:21:09.679Z,6.28
2017-12-05T07:21:35.174Z,6.27
2017-12-05T07:22:00.599Z,6.28
2017-12-05T07:22:26.082Z,6.31
2017-12-05T07:22:51.650Z,6.3
2017-12-05T07:23:17.151Z,6.27
2017-12-05T07:23:42.633Z,6.26
2017-12-05T07:24:08.049Z,6.26
2017-12-05T07:24:33.583Z,6.3
2017-12-05T07:24:59.064Z,6.3
2017-12-05T07:25:24.582Z,6.33
2017-12-05T07:25:50.041Z,6.39
2017-12-05T07:26:15.587Z,6.31
2017-12-05T07:26:41.024Z,6.35
2017-12-05T07:27:06.562Z,6.3
2017-12-05T07:27:32.117Z,6.26
2017-12-05T07:27:57.624Z,6.33
2017-12-05T07:28:23.080Z,6.28
2017-12-05T07:28:48.647Z,6.26
2017-12-05T07:29:14.047Z,6.3
2017-12-05T07:29:39.558Z,6.33
2017-12-05T07:30:04.992Z,6.42
2017-12-05T07:30:30.544Z,6.35
2017-12-05T07:30:56.052Z,6.36
2017-12-05T07:31:21.549Z,6.33
2017-12-05T07:31:47.343Z,6.41
2017-12-05T07:32:12.779Z,6.3
2017-12-05T07:32:38.279Z,6.3
2017-12-05T07:33:03.859Z,6.3
2017-12-05T07:33:29.314Z,6.35
2017-12-05T07:33:54.789Z,6.31
2017-12-05T07:34:20.348Z,6.35
2017-12-05T07:34:45.791Z,6.41
2017-12-05T07:35:11.332Z,6.3
2017-12-05T07:35:36.872Z,6.26
2017-12-05T07:36:02.847Z,6.27
2017-12-05T07:36:28.407Z,6.31
2017-12-05T07:36:53.898Z,6.42
2017-12-05T07:37:19.543Z,6.42
2017-12-05T07:37:45.100Z,6.33
2017-12-05T07:38:10.935Z,6.31
2017-12-05T07:38:36.362Z,6.33
2017-12-05T07:39:02.253Z,6.45
2017-12-05T07:39:30.267Z,6.42
2017-12-05T07:39:55.726Z,6.45
2017-12-05T07:40:21.215Z,6.33
2017-12-05T07:40:46.694Z,6.3
2017-12-05T07:41:12.113Z,6.35
2017-12-05T07:41:37.746Z,6.42
2017-12-05T07:42:03.151Z,6.41
2017-12-05T07:42:28.657Z,6.42
2017-12-05T07:42:54.187Z,6.31
2017-12-05T07:43:19.705Z,6.38
2017-12-05T07:43:45.116Z,6.38
2017-12-05T07:44:10.610Z,6.42
2017-12-05T07:44:36.231Z,6.45
2017-12-05T07:45:01.643Z,6.45
2017-12-05T07:45:27.080Z,6.45
2017-12-05T07:45:52.729Z,6.41
2017-12-05T07:46:18.112Z,6.44
2017-12-05T07:46:43.677Z,6.41
2017-12-05T07:47:09.151Z,6.38
2017-12-05T07:47:34.668Z,6.41
2017-12-05T07:48:00.213Z,6.39
2017-12-05T07:48:25.713Z,6.42
2017-12-05T07:48:51.190Z,6.41
2017-12-05T07:49:16.683Z,6.38
2017-12-05T07:49:42.199Z,6.44
2017-12-05T07:50:07.672Z,6.44
2017-12-05T07:50:33.124Z,6.44
2017-12-05T07:50:58.598Z,6.44
2017-12-05T07:51:24.164Z,6.44
2017-12-05T07:51:49.618Z,6.45
2017-12-05T07:52:15.135Z,6.46
2017-12-05T07:52:40.564Z,6.42
2017-12-05T07:53:06.006Z,6.42
2017-12-05T07:53:31.522Z,6.41
2017-12-05T07:53:57.055Z,6.41
2017-12-05T07:54:22.586Z,6.46
2017-12-05T07:54:48.029Z,6.41
2017-12-05T07:55:13.539Z,6.39
2017-12-05T07:55:39.075Z,6.45
2017-12-05T07:56:04.565Z,6.44
2017-12-05T07:56:30.036Z,6.39
2017-12-05T07:56:55.586Z,6.54
2017-12-05T07:57:21.090Z,6.41
2017-12-05T07:57:46.531Z,6.49
2017-12-05T07:58:12.049Z,6.42
2017-12-05T07:58:37.619Z,6.44
2017-12-05T07:59:03.039Z,6.44
2017-12-05T07:59:28.621Z,6.49
2017-12-05T07:59:54.172Z,6.46
2017-12-05T08:00:19.606Z,6.49
2017-12-05T08:00:45.089Z,6.45
2017-12-05T08:01:10.695Z,6.44
2017-12-05T08:01:36.123Z,6.54
2017-12-05T08:02:01.583Z,6.46
2017-12-05T08:02:27.027Z,6.51
2017-12-05T08:02:52.578Z,6.54
2017-12-05T08:03:18.110Z,6.51
2017-12-05T08:03:43.570Z,6.48
2017-12-05T08:04:09.007Z,6.54
2017-12-05T08:04:34.488Z,6.51
2017-12-05T08:05:00.081Z,6.56
2017-12-05T08:05:25.513Z,6.62
2017-12-05T08:05:51.008Z,6.6
2017-12-05T08:06:16.565Z,6.49
2017-12-05T08:06:42.044Z,6.52
2017-12-05T08:07:07.496Z,6.62
2017-12-05T08:07:32.967Z,6.54
2017-12-05T08:07:58.428Z,6.59
2017-12-05T08:08:23.903Z,6.56
2017-12-05T08:08:49.392Z,6.62
2017-12-05T08:09:14.900Z,6.57
2017-12-05T08:09:40.408Z,6.51
2017-12-05T08:10:05.896Z,6.59
2017-12-05T08:10:59.336Z,6.59
2017-12-05T08:11:24.812Z,6.69
2017-12-05T08:11:50.305Z,6.59
2017-12-05T08:12:15.814Z,6.64
2017-12-05T08:12:41.285Z,6.66
2017-12-05T08:13:29.587Z,6.69
2017-12-05T08:13:55.094Z,6.62
2017-12-05T08:14:20.589Z,6.64
2017-12-05T08:14:46.055Z,6.63
2017-12-05T08:15:11.557Z,6.62
2017-12-05T08:15:37.020Z,6.77
2017-12-05T08:16:02.541Z,6.72
2017-12-05T08:16:55.966Z,6.75
2017-12-05T08:17:21.472Z,6.67
2017-12-05T08:17:46.984Z,6.69
2017-12-05T08:18:12.454Z,6.74
2017-12-05T08:18:37.969Z,6.72
2017-12-05T08:19:03.438Z,6.72
2017-12-05T08:19:28.970Z,6.72
2017-12-05T08:19:54.466Z,6.7
2017-12-05T08:20:19.935Z,6.7
2017-12-05T08:20:45.457Z,6.7
2017-12-05T08:21:10.930Z,6.72
2017-12-05T08:21:36.458Z,6.77
2017-12-05T08:22:01.935Z,6.67
2017-12-05T08:22:27.405Z,6.74
2017-12-05T08:22:52.938Z,6.72
2017-12-05T08:23:18.411Z,6.78
2017-12-05T08:23:43.886Z,6.81
2017-12-05T08:24:09.382Z,6.74
2017-12-05T08:24:34.912Z,6.74
2017-12-05T08:25:00.407Z,6.77
2017-12-05T08:25:25.889Z,6.74
2017-12-05T08:25:51.391Z,6.81
2017-12-05T08:26:16.851Z,6.77
2017-12-05T08:26:42.382Z,6.78
2017-12-05T08:27:07.828Z,6.78
2017-12-05T08:27:33.379Z,6.82
2017-12-05T08:27:58.856Z,6.79
2017-12-05T08:28:24.359Z,6.77
2017-12-05T08:28:49.874Z,6.81
2017-12-05T08:29:15.341Z,6.78
2017-12-05T08:29:40.812Z,6.74
2017-12-05T08:30:06.252Z,6.77
2017-12-05T08:30:31.745Z,6.79
2017-12-05T08:30:57.228Z,6.81
2017-12-05T08:31:22.736Z,6.74
2017-12-05T08:31:48.228Z,6.81
2017-12-05T08:32:13.716Z,6.79
2017-12-05T08:32:39.205Z,6.75
2017-12-05T08:33:04.702Z,6.84
2017-12-05T08:33:30.212Z,6.77
2017-12-05T08:33:55.725Z,6.81
2017-12-05T08:34:21.216Z,6.75
2017-12-05T08:34:46.713Z,6.74
2017-12-05T08:35:12.226Z,6.77
2017-12-05T08:35:37.713Z,6.72
2017-12-05T08:36:03.211Z,6.74
2017-12-05T08:36:28.706Z,6.74
2017-12-05T08:36:54.231Z,6.7
2017-12-05T08:37:42.542Z,6.75
2017-12-05T08:38:08.048Z,6.69
2017-12-05T08:38:33.518Z,6.7
2017-12-05T08:38:59.042Z,6.79
2017-12-05T08:39:24.543Z,6.77
2017-12-05T08:39:50.010Z,6.78
2017-12-05T08:40:15.497Z,6.78
2017-12-05T08:40:41.015Z,6.74
2017-12-05T08:41:06.506Z,6.72
2017-12-05T08:41:31.997Z,6.77
2017-12-05T08:41:57.491Z,6.74
2017-12-05T08:42:22.967Z,6.74
2017-12-05T08:42:48.468Z,6.72
2017-12-05T08:43:13.944Z,6.72
2017-12-05T08:43:39.444Z,6.74
2017-12-05T08:44:04.914Z,6.74
2017-12-05T08:44:30.376Z,6.69
2017-12-05T08:44:55.859Z,6.79
2017-12-05T08:45:21.360Z,6.78
2017-12-05T08:45:46.854Z,6.69
2017-12-05T08:46:55.589Z,6.7
2017-12-05T08:47:21.120Z,6.74
2017-12-05T08:47:46.607Z,6.78
2017-12-05T08:48:12.121Z,6.69
2017-12-05T08:48:37.582Z,6.78
2017-12-05T08:49:03.081Z,6.72
2017-12-05T08:49:28.606Z,6.75
2017-12-05T08:49:54.048Z,6.79
2017-12-05T08:50:47.483Z,6.79
2017-12-05T08:51:12.962Z,6.72
2017-12-05T08:51:38.464Z,6.74
2017-12-05T08:52:03.965Z,6.77
2017-12-05T08:52:29.448Z,6.77
2017-12-05T08:52:54.948Z,6.82
2017-12-05T08:53:20.436Z,6.81
2017-12-05T08:53:45.923Z,6.77
2017-12-05T08:54:11.440Z,6.78
2017-12-05T08:54:36.965Z,6.75
2017-12-05T08:55:02.444Z,6.82
2017-12-05T08:55:27.962Z,6.77
2017-12-05T08:55:53.451Z,6.79
2017-12-05T08:57:02.149Z,6.81
2017-12-05T08:57:27.666Z,6.7
2017-12-05T08:57:53.166Z,6.69
2017-12-05T08:58:18.669Z,6.78
2017-12-05T08:58:44.178Z,6.78
2017-12-05T08:59:09.687Z,6.79
2017-12-05T08:59:35.160Z,6.79
2017-12-05T09:00:00.649Z,6.75
2017-12-05T09:00:26.131Z,6.74
2017-12-05T09:00:51.597Z,6.7
2017-12-05T09:01:17.122Z,6.77
2017-12-05T09:01:42.645Z,6.74
2017-12-05T09:02:08.139Z,6.77
2017-12-05T09:02:33.593Z,6.72
2017-12-05T09:02:59.076Z,6.77
2017-12-05T09:03:24.570Z,6.7
2017-12-05T09:03:50.068Z,6.69
2017-12-05T09:04:15.588Z,6.81
2017-12-05T09:04:41.106Z,6.84
2017-12-05T09:05:06.609Z,6.74
2017-12-05T09:05:32.116Z,6.82
2017-12-05T09:05:57.621Z,6.77
2017-12-05T09:06:23.129Z,6.78
2017-12-05T09:06:48.621Z,6.72
2017-12-05T09:07:14.134Z,6.79
2017-12-05T09:07:39.611Z,6.78
2017-12-05T09:08:05.122Z,6.77
2017-12-05T09:08:30.599Z,6.77
2017-12-05T09:08:56.095Z,6.79
2017-12-05T09:09:21.600Z,6.74
2017-12-05T09:09:47.060Z,6.85
2017-12-05T09:10:12.562Z,6.77
2017-12-05T09:10:38.041Z,6.82
2017-12-05T09:11:03.545Z,6.82
2017-12-05T09:11:29.016Z,6.79
2017-12-05T09:11:54.523Z,6.82
2017-12-05T09:12:20.063Z,6.84
2017-12-05T09:12:45.564Z,6.79
2017-12-05T09:13:11.076Z,6.85
2017-12-05T09:14:04.487Z,6.88
2017-12-05T09:14:29.989Z,6.88
2017-12-05T09:14:55.482Z,6.87
2017-12-05T09:15:20.966Z,6.95
2017-12-05T09:15:46.557Z,6.87
2017-12-05T09:16:12.014Z,6.92
2017-12-05T09:17:20.702Z,6.85
2017-12-05T09:17:46.191Z,6.96
2017-12-05T09:18:11.693Z,6.89
2017-12-05T09:18:37.164Z,6.89
2017-12-05T09:19:40.815Z,6.92
2017-12-05T09:20:06.311Z,6.93
2017-12-05T09:20:31.807Z,6.87
2017-12-05T09:20:57.273Z,6.89
2017-12-05T09:21:22.734Z,6.95
2017-12-05T09:21:48.197Z,6.93
2017-12-05T09:22:13.667Z,6.97
2017-12-05T09:22:39.191Z,6.99
2017-12-05T09:23:04.685Z,6.93
2017-12-05T09:24:13.392Z,6.93
2017-12-05T09:24:38.891Z,6.96
2017-12-05T09:25:04.391Z,6.96
2017-12-05T09:25:29.868Z,6.93
2017-12-05T09:25:55.371Z,6.88
2017-12-05T09:26:20.920Z,6.92
2017-12-05T09:26:46.410Z,6.93
2017-12-05T09:27:55.106Z,6.88
2017-12-05T09:28:20.608Z,6.96
2017-12-05T09:28:46.109Z,6.92
2017-12-05T09:29:11.605Z,6.93
2017-12-05T09:29:37.160Z,6.95
2017-12-05T09:30:02.641Z,6.96
2017-12-05T09:30:28.125Z,6.89
2017-12-05T09:30:53.619Z,6.93
2017-12-05T09:31:19.099Z,6.88
2017-12-05T09:32:17.626Z,6.88
2017-12-05T09:32:43.144Z,6.97
2017-12-05T09:33:08.634Z,6.84
2017-12-05T09:33:34.122Z,6.88
2017-12-05T09:33:59.662Z,6.96
2017-12-05T09:34:25.122Z,6.88
2017-12-05T09:34:50.619Z,6.89
2017-12-05T09:35:16.103Z,6.88
2017-12-05T09:35:41.568Z,6.93
2017-12-05T09:36:07.067Z,6.93
2017-12-05T09:36:32.590Z,6.88
2017-12-05T09:36:58.081Z,6.87
2017-12-05T09:37:23.560Z,6.87
2017-12-05T09:37:49.053Z,6.85
2017-12-05T09:38:14.538Z,6.92
2017-12-05T09:38:40.028Z,6.89
2017-12-05T09:39:05.502Z,6.87
2017-12-05T09:39:30.992Z,6.88
2017-12-05T09:39:56.475Z,6.88
2017-12-05T09:40:22.049Z,6.89
2017-12-05T09:40:47.512Z,6.87
2017-12-05T09:41:12.987Z,6.87
2017-12-05T09:41:38.509Z,6.97
2017-12-05T09:42:04.026Z,6.87
2017-12-05T09:42:29.530Z,6.95
2017-12-05T09:42:55.085Z,6.89
2017-12-05T09:43:20.543Z,6.92
2017-12-05T09:43:46.021Z,6.95
2017-12-05T09:44:11.567Z,6.87
2017-12-05T09:44:37.025Z,6.92
2017-12-05T09:45:02.640Z,6.93
2017-12-05T09:45:28.128Z,6.97
2017-12-05T09:45:53.618Z,6.92
2017-12-05T09:46:19.057Z,6.97
2017-12-05T09:46:44.532Z,6.93
2017-12-05T09:47:09.999Z,6.96
2017-12-05T09:47:35.527Z,6.95
2017-12-05T09:48:00.980Z,6.93
2017-12-05T09:48:26.490Z,6.93
2017-12-05T09:48:51.996Z,6.88
2017-12-05T09:49:17.488Z,6.95
2017-12-05T09:50:05.814Z,6.92
2017-12-05T09:50:31.310Z,6.95
2017-12-05T09:50:56.793Z,6.92
2017-12-05T09:52:00.390Z,7.02
2017-12-05T09:52:25.881Z,7.02
2017-12-05T09:52:51.369Z,6.92
2017-12-05T09:53:16.820Z,7.05
2017-12-05T09:53:42.265Z,6.88
2017-12-05T09:54:07.808Z,6.89
2017-12-05T09:54:33.301Z,7.02
2017-12-05T09:54:58.820Z,7.07
2017-12-05T09:55:57.354Z,7.06
2017-12-05T09:56:22.846Z,7.05
2017-12-05T09:56:48.312Z,7.05
2017-12-05T09:57:57.029Z,7.06
2017-12-05T09:58:22.514Z,7.02
2017-12-05T09:58:48.018Z,7.02
2017-12-05T09:59:13.509Z,6.99
2017-12-05T10:00:06.913Z,7.02
2017-12-05T10:00:32.417Z,7.05
2017-12-05T10:00:57.892Z,7.05
2017-12-05T10:01:23.414Z,7.06
2017-12-05T10:01:48.951Z,7.02
2017-12-05T10:02:14.466Z,6.92
2017-12-05T10:02:39.943Z,7.06
2017-12-05T10:03:33.367Z,7.06
2017-12-05T10:03:58.863Z,7.14
2017-12-05T10:04:24.361Z,7.14
2017-12-05T10:04:49.903Z,7.1
2017-12-05T10:05:15.398Z,7.07
2017-12-05T10:05:40.885Z,7.11
2017-12-05T10:06:06.356Z,7
2017-12-05T10:06:31.879Z,7
2017-12-05T10:06:57.395Z,7.11
2017-12-05T10:07:22.906Z,7.07
2017-12-05T10:07:48.401Z,7.17
2017-12-05T10:08:13.886Z,7.11
2017-12-05T10:08:39.375Z,7.07
2017-12-05T10:09:37.878Z,7.07
2017-12-05T10:10:03.364Z,7.07
2017-12-05T10:10:28.874Z,7.1
2017-12-05T10:10:54.339Z,7.07
2017-12-05T10:11:19.859Z,7
2017-12-05T10:11:45.313Z,7.06
2017-12-05T10:12:10.797Z,7.05
2017-12-05T10:12:36.302Z,7.07
2017-12-05T10:13:01.764Z,7.15
2017-12-05T10:13:27.263Z,7.07
2017-12-05T10:13:52.745Z,7.15
2017-12-05T10:14:18.236Z,7.02
2017-12-05T10:14:43.714Z,7.15
2017-12-05T10:15:09.179Z,7.14
2017-12-05T10:15:34.668Z,7.18
2017-12-05T10:16:32.711Z,7.06
2017-12-05T10:16:58.209Z,7.13
2017-12-05T10:17:23.704Z,7.2
2017-12-05T10:17:49.163Z,7.05
2017-12-05T10:18:14.621Z,7.13
2017-12-05T10:18:40.133Z,7.2
2017-12-05T10:19:05.645Z,7.15
2017-12-05T10:19:31.111Z,7.11
2017-12-05T10:19:56.592Z,7.21
2017-12-05T10:20:22.057Z,7.2
2017-12-05T10:20:47.537Z,7.07
2017-12-05T10:21:13.081Z,7.1
2017-12-05T10:21:38.574Z,7.13
2017-12-05T10:22:04.047Z,7.05
2017-12-05T10:22:29.538Z,7.23
2017-12-05T10:22:55.008Z,7.18
2017-12-05T10:23:48.445Z,7.13
2017-12-05T10:24:13.934Z,7.17
2017-12-05T10:24:39.422Z,7.1
2017-12-05T10:25:04.903Z,7.18
2017-12-05T10:25:30.391Z,7.23
2017-12-05T10:25:55.872Z,7.2
2017-12-05T10:26:21.397Z,7.14
2017-12-05T10:26:46.868Z,7.2
2017-12-05T10:27:12.338Z,7.17
2017-12-05T10:27:37.877Z,7.18
2017-12-05T10:28:03.394Z,7.21
2017-12-05T10:28:28.894Z,7.17
2017-12-05T10:28:54.427Z,7.23
2017-12-05T10:29:19.880Z,7.14
2017-12-05T10:29:45.329Z,7.2
2017-12-05T10:30:10.801Z,7.14
2017-12-05T10:30:36.256Z,7.15
2017-12-05T10:31:01.745Z,7.1
2017-12-05T10:32:10.439Z,7.11
2017-12-05T10:32:35.941Z,7.13
2017-12-05T10:33:01.424Z,7.14
2017-12-05T10:33:26.920Z,7.2
2017-12-05T10:33:52.451Z,7.2
2017-12-05T10:34:17.926Z,7.2
2017-12-05T10:34:43.425Z,7.17
2017-12-05T10:35:08.903Z,7.23
2017-12-05T10:35:34.431Z,7.17
2017-12-05T10:35:59.920Z,7.13
2017-12-05T10:36:25.404Z,7.17
2017-12-05T10:36:50.884Z,7.18
2017-12-05T10:37:16.420Z,7.15
2017-12-05T10:37:41.902Z,7.14
2017-12-05T10:38:07.395Z,7.23
2017-12-05T10:38:32.907Z,7.14
2017-12-05T10:38:58.421Z,7.18
2017-12-05T10:39:23.950Z,7.14
2017-12-05T10:39:49.462Z,7.14
2017-12-05T10:40:14.948Z,7.18
2017-12-05T10:40:40.459Z,7.07
2017-12-05T10:41:05.972Z,7.18
2017-12-05T10:41:31.493Z,7.17
2017-12-05T10:41:56.986Z,7.13
2017-12-05T10:42:22.521Z,7.2
2017-12-05T10:42:48.038Z,7.14
2017-12-05T10:43:13.504Z,7.23
2017-12-05T10:43:39.035Z,7.15
2017-12-05T10:44:04.516Z,7.13
2017-12-05T10:44:29.982Z,7.17
2017-12-05T10:44:55.479Z,7.14
2017-12-05T10:45:20.990Z,7.15
2017-12-05T10:45:46.486Z,7.24
2017-12-05T10:46:11.951Z,7.14
2017-12-05T10:46:37.504Z,7.17
2017-12-05T10:47:02.995Z,7.15
2017-12-05T10:47:28.471Z,7.17
2017-12-05T10:47:53.971Z,7.29
2017-12-05T10:48:19.471Z,7.14
2017-12-05T10:48:44.959Z,7.07
2017-12-05T10:49:10.436Z,7.18
2017-12-05T10:49:35.914Z,7.13
2017-12-05T10:50:01.460Z,7.28
2017-12-05T10:50:26.955Z,7.18
2017-12-05T10:50:52.422Z,7.21
2017-12-05T10:51:17.935Z,7.28
2017-12-05T10:51:43.433Z,7.25
2017-12-05T10:52:08.942Z,7.24
2017-12-05T10:52:34.422Z,7.24
2017-12-05T10:52:59.918Z,7.18
2017-12-05T10:53:25.409Z,7.24
2017-12-05T10:53:50.908Z,7.14
2017-12-05T10:54:16.406Z,7.15
2017-12-05T10:54:41.906Z,7.18
2017-12-05T10:55:07.421Z,7.11
2017-12-05T10:55:32.907Z,7.18
2017-12-05T10:55:58.423Z,7.23
2017-12-05T10:56:23.909Z,7.14